createdAt,value
2019-05-22T00:00:18.896Z,97.00
2019-05-22T00:02:49.455Z,97.10
2019-05-22T00:05:38.463Z,97.10
2019-05-22T00:08:09.725Z,97.30
2019-05-22T00:10:41.261Z,97.20
2019-05-22T00:13:13.582Z,97.20
2019-05-22T00:15:43.086Z,97.30
2019-05-22T00:18:13.113Z,97.10
2019-05-22T00:20:43.795Z,97.10
2019-05-22T00:23:12.641Z,97.30
2019-05-22T00:25:43.667Z,97.50
2019-05-22T00:28:13.342Z,97.50
2019-05-22T00:30:45.451Z,97.40
2019-05-22T00:33:14.430Z,97.40
2019-05-22T00:35:45.428Z,97.30
2019-05-22T00:38:15.305Z,97.20
2019-05-22T00:40:51.737Z,97.40
2019-05-22T00:43:22.186Z,97.70
2019-05-22T00:45:51.008Z,97.50
2019-05-22T00:48:22.906Z,97.50
2019-05-22T00:51:04.806Z,97.30
2019-05-22T00:53:45.057Z,97.40
2019-05-22T00:56:16.981Z,97.40
2019-05-22T00:58:58.332Z,97.30
2019-05-22T01:01:32.885Z,97.40
2019-05-22T01:04:03.395Z,97.50
2019-05-22T01:06:33.286Z,97.40
2019-05-22T01:09:04.739Z,97.50
2019-05-22T01:11:34.140Z,97.50
2019-05-22T01:14:04.562Z,97.40
2019-05-22T01:16:34.081Z,97.30
2019-05-22T01:19:05.933Z,97.40
2019-05-22T01:21:36.647Z,97.40
2019-05-22T01:24:07.117Z,97.50
2019-05-22T01:26:36.141Z,97.60
2019-05-22T01:29:05.983Z,97.70
2019-05-22T01:31:37.419Z,97.60
2019-05-22T01:34:09.588Z,97.50
2019-05-22T01:36:39.282Z,97.40
2019-05-22T01:39:15.324Z,97.40
2019-05-22T01:41:48.583Z,97.40
2019-05-22T01:44:19.910Z,97.40
2019-05-22T01:46:50.570Z,97.40
2019-05-22T01:49:19.394Z,97.30
2019-05-22T01:51:48.380Z,97.40
2019-05-22T01:54:18.890Z,97.40
2019-05-22T01:56:48.950Z,97.60
2019-05-22T01:59:19.688Z,97.60
2019-05-22T02:01:49.364Z,97.60
2019-05-22T02:04:19.597Z,97.60
2019-05-22T02:06:48.750Z,97.50
2019-05-22T02:09:34.260Z,97.70
2019-05-22T02:12:16.912Z,97.90
2019-05-22T02:14:48.493Z,97.70
2019-05-22T02:17:20.425Z,97.40
2019-05-22T02:19:49.303Z,97.60
2019-05-22T02:22:19.340Z,97.60
2019-05-22T02:24:51.663Z,97.60
2019-05-22T02:27:21.370Z,97.50
2019-05-22T02:29:52.934Z,97.50
2019-05-22T02:32:23.524Z,97.60
2019-05-22T02:34:52.366Z,97.50
2019-05-22T02:37:22.233Z,97.70
2019-05-22T02:39:53.134Z,98.00
2019-05-22T02:42:31.089Z,98.10
2019-05-22T02:45:01.973Z,98.20
2019-05-22T02:47:32.034Z,98.30
2019-05-22T02:50:01.794Z,97.40
2019-05-22T02:52:30.770Z,97.30
2019-05-22T02:54:59.850Z,97.60
2019-05-22T02:57:30.851Z,97.10
2019-05-22T03:00:01.349Z,97.10
2019-05-22T03:02:32.739Z,97.10
2019-05-22T03:05:06.406Z,97.00
2019-05-22T03:07:36.135Z,96.90
2019-05-22T03:10:08.270Z,97.00
2019-05-22T03:12:36.417Z,97.10
2019-05-22T03:15:11.524Z,97.10
2019-05-22T03:17:43.376Z,97.00
2019-05-22T03:20:19.017Z,97.00
2019-05-22T03:22:54.007Z,96.80
2019-05-22T03:25:24.341Z,96.60
2019-05-22T03:27:54.301Z,96.70
2019-05-22T03:30:30.347Z,96.70
2019-05-22T03:33:01.734Z,96.70
2019-05-22T03:35:33.599Z,96.60
2019-05-22T03:38:04.139Z,96.90
2019-05-22T03:40:34.993Z,97.20
2019-05-22T03:43:16.062Z,97.30
2019-05-22T03:45:45.028Z,97.50
2019-05-22T03:48:14.068Z,97.40
2019-05-22T03:50:43.845Z,97.50
2019-05-22T03:53:18.307Z,97.60
2019-05-22T03:55:48.870Z,97.60
2019-05-22T03:58:18.610Z,97.50
2019-05-22T04:00:50.904Z,97.20
2019-05-22T04:03:21.344Z,97.00
2019-05-22T04:05:52.783Z,96.90
2019-05-22T04:08:24.279Z,96.90
2019-05-22T04:10:59.691Z,96.90
2019-05-22T04:13:29.356Z,97.50
2019-05-22T04:15:59.817Z,97.40
2019-05-22T04:18:29.776Z,97.40
2019-05-22T04:21:00.717Z,97.30
2019-05-22T04:23:29.802Z,97.40
2019-05-22T04:26:00.305Z,97.40
2019-05-22T04:28:30.331Z,97.30
2019-05-22T04:31:00.894Z,97.30
2019-05-22T04:33:31.137Z,97.20
2019-05-22T04:36:02.229Z,97.20
2019-05-22T04:38:31.503Z,97.30
2019-05-22T04:41:01.708Z,97.20
2019-05-22T04:43:34.278Z,96.80
2019-05-22T04:46:05.529Z,96.60
2019-05-22T04:48:35.324Z,96.70
2019-05-22T04:51:10.072Z,96.70
2019-05-22T04:53:39.071Z,96.70
2019-05-22T04:56:07.907Z,96.40
2019-05-22T04:58:36.733Z,96.30
2019-05-22T05:01:05.815Z,96.60
2019-05-22T05:03:35.134Z,96.60
2019-05-22T05:06:06.967Z,96.40
2019-05-22T05:08:37.580Z,96.40
2019-05-22T05:11:06.553Z,96.10
2019-05-22T05:13:35.494Z,96.20
2019-05-22T05:16:05.466Z,96.40
2019-05-22T05:18:34.317Z,96.40
2019-05-22T05:21:03.172Z,96.30
2019-05-22T05:23:32.340Z,96.50
2019-05-22T05:26:01.201Z,95.80
2019-05-22T05:28:30.188Z,95.50
2019-05-22T05:31:00.537Z,95.50
2019-05-22T05:33:32.412Z,95.50
2019-05-22T05:36:02.139Z,95.60
2019-05-22T05:38:38.742Z,95.60
2019-05-22T05:41:07.810Z,95.40
2019-05-22T05:43:37.144Z,95.50
2019-05-22T05:46:07.006Z,95.80
2019-05-22T05:48:35.961Z,95.50
2019-05-22T05:51:08.608Z,95.40
2019-05-22T05:53:55.380Z,95.50
2019-05-22T05:56:27.151Z,95.70
2019-05-22T05:58:57.974Z,95.70
2019-05-22T06:01:32.469Z,95.70
2019-05-22T06:04:02.888Z,95.80
2019-05-22T06:06:35.123Z,95.60
2019-05-22T06:09:05.205Z,95.50
2019-05-22T06:11:40.018Z,95.50
2019-05-22T06:14:11.647Z,95.30
2019-05-22T06:16:53.757Z,95.60
2019-05-22T06:19:24.007Z,95.10
2019-05-22T06:21:53.627Z,94.80
2019-05-22T06:24:34.945Z,94.70
2019-05-22T06:27:08.843Z,94.60
2019-05-22T06:29:43.444Z,94.60
2019-05-22T06:32:38.751Z,94.20
2019-05-22T06:35:12.118Z,94.00
2019-05-22T06:37:46.344Z,93.90
2019-05-22T06:40:17.737Z,94.10
2019-05-22T06:42:49.542Z,94.20
2019-05-22T06:45:18.668Z,93.90
2019-05-22T06:47:47.850Z,93.50
2019-05-22T06:50:16.697Z,93.00
2019-05-22T06:52:45.570Z,92.50
2019-05-22T06:55:14.420Z,92.40
2019-05-22T06:57:43.402Z,92.80
2019-05-22T07:00:15.366Z,92.50
2019-05-22T07:02:44.692Z,92.30
2019-05-22T07:05:14.384Z,92.00
2019-05-22T07:07:43.320Z,91.40
2019-05-22T07:10:13.715Z,90.60
2019-05-22T07:12:43.740Z,91.20
2019-05-22T07:15:21.595Z,91.40
2019-05-22T07:17:52.195Z,91.50
2019-05-22T07:20:22.122Z,90.90
2019-05-22T07:22:51.941Z,90.90
2019-05-22T07:25:22.287Z,91.40
2019-05-22T07:27:51.702Z,91.30
2019-05-22T07:30:20.651Z,91.20
2019-05-22T07:32:49.681Z,90.30
2019-05-22T07:35:18.577Z,89.10
2019-05-22T07:37:49.403Z,87.70
2019-05-22T07:40:18.928Z,87.70
2019-05-22T07:42:50.025Z,87.10
2019-05-22T07:45:20.566Z,85.30
2019-05-22T07:47:50.119Z,84.30
2019-05-22T07:50:19.364Z,84.90
2019-05-22T07:52:50.736Z,84.00
2019-05-22T07:55:22.198Z,84.00
2019-05-22T07:58:03.798Z,83.80
2019-05-22T08:00:32.820Z,83.20
2019-05-22T08:03:02.702Z,81.50
2019-05-22T08:05:34.070Z,80.40
2019-05-22T08:08:04.298Z,80.40
2019-05-22T08:10:33.895Z,81.10
2019-05-22T08:13:02.827Z,81.70
2019-05-22T08:15:31.770Z,81.00
2019-05-22T08:18:01.930Z,80.90
2019-05-22T08:20:32.368Z,81.80
2019-05-22T08:23:02.386Z,81.30
2019-05-22T08:25:31.834Z,81.80
2019-05-22T08:28:00.886Z,81.50
2019-05-22T08:30:30.868Z,81.10
2019-05-22T08:33:03.481Z,81.30
2019-05-22T08:35:32.486Z,80.40
2019-05-22T08:38:04.674Z,78.90
2019-05-22T08:40:32.965Z,76.50
2019-05-22T08:43:01.881Z,77.70
2019-05-22T08:45:30.983Z,77.00
2019-05-22T08:47:59.908Z,74.40
2019-05-22T08:50:31.231Z,75.40
2019-05-22T08:53:01.364Z,74.60
2019-05-22T08:55:32.594Z,74.20
2019-05-22T08:58:01.417Z,76.50
2019-05-22T09:00:32.186Z,74.90
2019-05-22T09:03:01.523Z,73.70
2019-05-22T09:05:30.556Z,69.30
2019-05-22T09:07:59.442Z,69.40
2019-05-22T09:10:28.574Z,68.60
2019-05-22T09:12:57.666Z,67.80
2019-05-22T09:15:26.659Z,67.60
2019-05-22T09:17:55.504Z,66.40
2019-05-22T09:20:24.949Z,66.00
2019-05-22T09:22:53.887Z,67.10
2019-05-22T09:25:23.458Z,66.70
2019-05-22T09:27:52.492Z,67.20
2019-05-22T09:30:22.092Z,66.50
2019-05-22T09:32:51.624Z,66.20
2019-05-22T09:35:20.471Z,66.40
2019-05-22T09:37:49.346Z,66.10
2019-05-22T09:40:18.373Z,65.90
2019-05-22T09:42:47.934Z,63.40
2019-05-22T09:45:16.882Z,64.40
2019-05-22T09:47:46.055Z,62.80
2019-05-22T09:50:15.673Z,62.50
2019-05-22T09:52:56.975Z,59.30
2019-05-22T09:55:18.366Z,59.60
2019-05-22T09:57:47.182Z,59.20
2019-05-22T10:00:17.056Z,58.00
2019-05-22T10:02:45.999Z,59.60
2019-05-22T10:05:16.150Z,59.00
2019-05-22T10:07:59.487Z,58.60
2019-05-22T10:10:17.970Z,60.50
2019-05-22T10:12:47.467Z,59.00
2019-05-22T10:15:17.150Z,59.70
2019-05-22T10:17:49.532Z,57.90
2019-05-22T10:20:19.799Z,58.30
2019-05-22T10:22:49.528Z,59.20
2019-05-22T10:25:18.701Z,59.50
2019-05-22T10:27:49.021Z,58.80
2019-05-22T10:30:20.951Z,59.30
2019-05-22T10:32:51.948Z,60.00
2019-05-22T10:35:26.756Z,58.60
2019-05-22T10:37:56.675Z,60.20
2019-05-22T10:40:26.016Z,58.40
2019-05-22T10:42:54.914Z,59.20
2019-05-22T10:45:23.741Z,60.30
2019-05-22T10:47:52.734Z,59.10
2019-05-22T10:50:21.860Z,59.20
2019-05-22T10:52:54.487Z,60.20
2019-05-22T10:55:22.721Z,60.70
2019-05-22T10:57:51.713Z,60.90
2019-05-22T11:00:23.263Z,60.30
2019-05-22T11:02:52.412Z,61.80
2019-05-22T11:05:22.769Z,60.10
2019-05-22T11:07:52.439Z,59.20
2019-05-22T11:10:24.458Z,59.00
2019-05-22T11:12:54.320Z,59.10
2019-05-22T11:15:23.874Z,59.30
2019-05-22T11:17:53.805Z,59.90
2019-05-22T11:20:24.048Z,60.00
2019-05-22T11:22:53.279Z,60.40
2019-05-22T11:25:22.459Z,61.80
2019-05-22T11:27:53.805Z,62.30
2019-05-22T11:30:23.813Z,60.00
2019-05-22T11:32:54.930Z,61.40
2019-05-22T11:35:24.682Z,63.20
2019-05-22T11:37:54.538Z,61.90
2019-05-22T11:40:24.078Z,61.60
2019-05-22T11:42:53.841Z,63.50
2019-05-22T11:45:23.008Z,63.80
2019-05-22T11:47:52.454Z,62.00
2019-05-22T11:50:24.019Z,62.30
2019-05-22T11:52:53.275Z,63.90
2019-05-22T11:55:22.368Z,63.60
2019-05-22T11:57:53.683Z,64.30
2019-05-22T12:00:23.655Z,61.60
2019-05-22T12:02:53.626Z,62.70
2019-05-22T12:05:24.670Z,60.50
2019-05-22T12:07:54.222Z,59.40
2019-05-22T12:10:25.669Z,59.00
2019-05-22T12:12:56.214Z,58.20
2019-05-22T12:15:28.069Z,59.40
2019-05-22T12:17:57.983Z,61.80
2019-05-22T12:20:29.373Z,61.60
2019-05-22T12:22:58.303Z,60.30
2019-05-22T12:25:27.979Z,61.20
2019-05-22T12:27:57.306Z,58.80
2019-05-22T12:30:28.781Z,61.00
2019-05-22T12:32:59.554Z,63.20
2019-05-22T12:35:30.140Z,59.10
2019-05-22T12:38:00.721Z,59.30
2019-05-22T12:40:33.907Z,60.70
2019-05-22T12:43:03.873Z,60.00
2019-05-22T12:45:33.613Z,59.90
2019-05-22T12:48:04.578Z,59.40
2019-05-22T12:50:33.902Z,59.00
2019-05-22T12:53:06.023Z,59.20
2019-05-22T12:55:34.238Z,57.30
2019-05-22T12:58:03.475Z,57.50
2019-05-22T13:00:33.868Z,56.60
2019-05-22T13:03:03.715Z,57.60
2019-05-22T13:05:35.714Z,56.70
2019-05-22T13:08:04.552Z,57.20
2019-05-22T13:10:34.140Z,60.00
2019-05-22T13:13:03.277Z,61.50
2019-05-22T13:15:35.489Z,60.20
2019-05-22T13:18:05.927Z,60.90
2019-05-22T13:20:43.298Z,62.50
2019-05-22T13:23:11.747Z,63.60
2019-05-22T13:25:42.535Z,63.60
2019-05-22T13:28:14.622Z,63.90
2019-05-22T13:30:45.389Z,62.90
2019-05-22T13:33:18.045Z,64.50
2019-05-22T13:35:47.690Z,64.20
2019-05-22T13:38:18.588Z,62.10
2019-05-22T13:40:50.240Z,63.60
2019-05-22T13:43:19.648Z,64.30
2019-05-22T13:45:49.952Z,65.10
2019-05-22T13:48:18.813Z,64.20
2019-05-22T13:50:48.470Z,65.30
2019-05-22T13:53:18.311Z,65.70
2019-05-22T13:55:47.515Z,63.80
2019-05-22T13:58:19.638Z,63.80
2019-05-22T14:00:48.232Z,60.50
2019-05-22T14:03:17.699Z,61.10
2019-05-22T14:05:48.136Z,63.00
2019-05-22T14:08:17.321Z,64.90
2019-05-22T14:10:49.751Z,65.50
2019-05-22T14:13:17.655Z,66.40
2019-05-22T14:15:54.639Z,67.10
2019-05-22T14:18:17.400Z,67.10
2019-05-22T14:20:46.774Z,66.70
2019-05-22T14:23:16.677Z,67.50
2019-05-22T14:25:47.328Z,63.10
2019-05-22T14:28:17.424Z,63.50
2019-05-22T14:30:46.348Z,64.30
2019-05-22T14:33:15.708Z,65.40
2019-05-22T14:35:48.823Z,65.90
2019-05-22T14:38:16.518Z,66.80
2019-05-22T14:40:45.648Z,67.50
2019-05-22T14:43:14.451Z,66.30
2019-05-22T14:45:43.635Z,66.70
2019-05-22T14:48:13.272Z,68.20
2019-05-22T14:50:42.223Z,63.80
2019-05-22T14:53:12.494Z,63.10
2019-05-22T14:55:41.540Z,63.30
2019-05-22T14:58:30.316Z,61.80
2019-05-22T15:00:59.162Z,62.00
2019-05-22T15:03:28.502Z,62.40
2019-05-22T15:05:57.690Z,61.80
2019-05-22T15:08:26.512Z,63.10
2019-05-22T15:10:57.175Z,62.60
2019-05-22T15:13:26.204Z,65.00
2019-05-22T15:15:55.048Z,65.80
2019-05-22T15:18:23.920Z,65.80
2019-05-22T15:21:01.250Z,66.40
2019-05-22T15:23:32.746Z,62.40
2019-05-22T15:26:02.400Z,63.60
2019-05-22T15:28:31.923Z,63.40
2019-05-22T15:31:01.892Z,65.10
2019-05-22T15:33:31.433Z,64.50
2019-05-22T15:36:00.521Z,64.20
2019-05-22T15:38:31.245Z,65.40
2019-05-22T15:41:00.583Z,65.50
2019-05-22T15:43:29.946Z,65.10
2019-05-22T15:46:01.336Z,63.60
2019-05-22T15:48:31.938Z,63.60
2019-05-22T15:51:07.006Z,64.90
2019-05-22T15:53:38.269Z,65.30
2019-05-22T15:56:09.613Z,65.70
2019-05-22T15:58:41.382Z,64.30
2019-05-22T16:01:13.115Z,62.80
2019-05-22T16:03:42.647Z,63.70
2019-05-22T16:06:13.847Z,64.80
2019-05-22T16:08:42.896Z,65.30
2019-05-22T16:11:14.868Z,63.90
2019-05-22T16:13:45.406Z,64.00
2019-05-22T16:16:16.856Z,65.10
2019-05-22T16:18:47.720Z,65.00
2019-05-22T16:21:18.047Z,67.90
2019-05-22T16:23:48.300Z,65.40
2019-05-22T16:26:18.478Z,67.20
2019-05-22T16:28:49.692Z,66.80
2019-05-22T16:31:20.623Z,66.10
2019-05-22T16:33:52.734Z,65.30
2019-05-22T16:36:20.988Z,66.50
2019-05-22T16:38:51.309Z,67.50
2019-05-22T16:41:22.757Z,68.60
2019-05-22T16:43:51.865Z,66.60
2019-05-22T16:46:21.993Z,66.70
2019-05-22T16:48:52.124Z,67.50
2019-05-22T16:51:23.726Z,67.10
2019-05-22T16:53:54.902Z,67.80
2019-05-22T16:56:25.018Z,67.30
2019-05-22T16:58:55.570Z,67.70
2019-05-22T17:01:25.847Z,65.50
2019-05-22T17:03:58.532Z,64.80
2019-05-22T17:06:27.732Z,65.50
2019-05-22T17:08:57.970Z,66.30
2019-05-22T17:11:27.962Z,68.40
2019-05-22T17:14:01.033Z,68.40
2019-05-22T17:16:32.622Z,68.80
2019-05-22T17:19:02.951Z,68.70
2019-05-22T17:21:32.509Z,69.10
2019-05-22T17:24:03.758Z,68.20
2019-05-22T17:26:33.926Z,68.00
2019-05-22T17:29:02.940Z,67.80
2019-05-22T17:31:31.787Z,68.10
2019-05-22T17:34:00.825Z,67.80
2019-05-22T17:36:31.119Z,68.50
2019-05-22T17:39:01.322Z,68.70
2019-05-22T17:41:30.564Z,69.40
2019-05-22T17:44:01.864Z,69.80
2019-05-22T17:46:32.702Z,68.90
2019-05-22T17:49:02.560Z,69.90
2019-05-22T17:51:32.075Z,69.90
2019-05-22T17:54:01.047Z,71.00
2019-05-22T17:56:29.983Z,72.70
2019-05-22T17:58:58.914Z,72.70
2019-05-22T18:01:27.784Z,72.90
2019-05-22T18:03:57.437Z,72.40
2019-05-22T18:06:26.717Z,72.40
2019-05-22T18:08:55.948Z,71.80
2019-05-22T18:11:24.850Z,73.20
2019-05-22T18:14:00.912Z,74.30
2019-05-22T18:17:16.779Z,75.20
2019-05-22T18:19:45.626Z,75.40
2019-05-22T18:22:15.563Z,76.10
2019-05-22T18:24:46.005Z,78.00
2019-05-22T18:27:14.962Z,79.00
2019-05-22T18:29:43.846Z,80.50
2019-05-22T18:32:13.445Z,80.90
2019-05-22T18:34:42.328Z,81.70
2019-05-22T18:37:11.291Z,81.80
2019-05-22T18:39:40.955Z,81.90
2019-05-22T18:42:09.941Z,82.40
2019-05-22T18:44:38.867Z,82.90
2019-05-22T18:47:08.486Z,82.40
2019-05-22T18:49:37.468Z,82.90
2019-05-22T18:52:07.401Z,83.30
2019-05-22T18:54:36.286Z,84.90
2019-05-22T18:57:05.109Z,85.90
2019-05-22T18:59:33.988Z,85.70
2019-05-22T19:02:02.973Z,84.90
2019-05-22T19:04:32.815Z,85.30
2019-05-22T19:07:01.718Z,85.30
2019-05-22T19:09:30.527Z,85.00
2019-05-22T19:11:59.519Z,84.50
2019-05-22T19:14:28.392Z,84.20
2019-05-22T19:16:57.423Z,84.20
2019-05-22T19:19:28.411Z,83.80
2019-05-22T19:21:57.165Z,83.20
2019-05-22T19:24:26.034Z,83.00
2019-05-22T19:26:55.394Z,82.80
2019-05-22T19:29:24.497Z,82.20
2019-05-22T19:31:53.752Z,82.30
2019-05-22T19:34:23.298Z,82.90
2019-05-22T19:36:52.536Z,83.30
2019-05-22T19:39:21.636Z,83.00
2019-05-22T19:42:02.002Z,83.00
2019-05-22T19:44:22.642Z,81.60
2019-05-22T19:46:52.269Z,80.70
2019-05-22T19:49:21.700Z,80.40
2019-05-22T19:51:51.331Z,79.90
2019-05-22T19:54:20.177Z,80.00
2019-05-22T19:56:49.444Z,79.90
2019-05-22T19:59:19.190Z,79.80
2019-05-22T20:01:48.054Z,80.10
2019-05-22T20:04:18.095Z,80.20
2019-05-22T20:06:47.688Z,80.70
2019-05-22T20:09:17.363Z,81.30
2019-05-22T20:11:46.899Z,81.70
2019-05-22T20:14:16.178Z,82.20
2019-05-22T20:16:45.025Z,82.30
2019-05-22T20:19:14.026Z,82.30
2019-05-22T20:21:43.377Z,82.90
2019-05-22T20:24:12.488Z,83.00
2019-05-22T20:26:41.349Z,83.00
2019-05-22T20:29:10.281Z,83.50
2019-05-22T20:31:39.172Z,83.50
2019-05-22T20:34:08.466Z,83.60
2019-05-22T20:36:38.060Z,83.90
2019-05-22T20:39:09.535Z,84.40
2019-05-22T20:41:39.076Z,84.60
2019-05-22T20:44:08.811Z,85.10
2019-05-22T20:46:38.630Z,85.60
2019-05-22T20:49:10.365Z,86.10
2019-05-22T20:51:40.366Z,86.30
2019-05-22T20:54:10.022Z,86.70
2019-05-22T20:56:43.021Z,87.00
2019-05-22T20:59:13.046Z,87.40
2019-05-22T21:01:42.324Z,87.80
2019-05-22T21:04:13.899Z,88.20
2019-05-22T21:06:54.751Z,88.80
2019-05-22T21:09:25.014Z,89.00
2019-05-22T21:11:54.558Z,89.40
2019-05-22T21:14:23.932Z,89.90
2019-05-22T21:16:53.973Z,90.00
2019-05-22T21:19:23.835Z,90.00
2019-05-22T21:21:55.530Z,90.10
2019-05-22T21:24:25.507Z,90.10
2019-05-22T21:26:54.379Z,90.10
2019-05-22T21:29:24.616Z,90.10
2019-05-22T21:31:53.811Z,90.20
2019-05-22T21:34:23.542Z,90.10
2019-05-22T21:36:52.435Z,90.20
2019-05-22T21:39:22.878Z,90.20
2019-05-22T21:41:53.014Z,90.10
2019-05-22T21:44:22.375Z,90.10
2019-05-22T21:46:51.925Z,90.10
2019-05-22T21:49:21.228Z,90.10
2019-05-22T21:51:50.400Z,90.10
2019-05-22T21:54:20.442Z,90.10
2019-05-22T21:56:50.137Z,90.10
2019-05-22T21:59:18.983Z,90.20
2019-05-22T22:01:52.131Z,90.30
2019-05-22T22:04:22.871Z,90.30
2019-05-22T22:06:54.047Z,90.50
2019-05-22T22:09:23.905Z,90.50
2019-05-22T22:11:52.989Z,90.70
2019-05-22T22:14:24.350Z,90.70
2019-05-22T22:16:53.610Z,90.60
2019-05-22T22:19:24.186Z,90.60
2019-05-22T22:21:53.856Z,90.40
2019-05-22T22:24:23.439Z,90.30
2019-05-22T22:26:52.316Z,90.30
2019-05-22T22:29:21.356Z,90.30
2019-05-22T22:31:51.921Z,90.30
2019-05-22T22:34:26.622Z,90.30
2019-05-22T22:36:56.722Z,90.40
2019-05-22T22:39:25.959Z,90.40
2019-05-22T22:41:57.935Z,90.40
2019-05-22T22:44:27.901Z,90.40
2019-05-22T22:46:59.772Z,90.50
2019-05-22T22:49:29.352Z,90.50
2019-05-22T22:51:59.562Z,90.60
2019-05-22T22:54:29.458Z,91.00
2019-05-22T22:56:58.882Z,91.00
2019-05-22T22:59:27.907Z,91.10
2019-05-22T23:01:59.287Z,91.30
2019-05-22T23:04:30.012Z,91.20
2019-05-22T23:07:01.838Z,91.20
2019-05-22T23:09:31.950Z,91.40
2019-05-22T23:12:01.692Z,91.50
2019-05-22T23:14:32.941Z,91.80
2019-05-22T23:17:02.372Z,91.90
2019-05-22T23:19:34.429Z,92.10
2019-05-22T23:22:03.353Z,92.20
2019-05-22T23:24:34.247Z,92.30
2019-05-22T23:27:03.859Z,92.50
2019-05-22T23:29:33.696Z,92.00
2019-05-22T23:32:04.272Z,91.60
2019-05-22T23:34:33.208Z,91.00
2019-05-22T23:37:03.022Z,90.80
2019-05-22T23:39:34.076Z,90.60
2019-05-22T23:42:07.478Z,90.60
2019-05-22T23:44:37.829Z,90.60
2019-05-22T23:47:08.353Z,90.70
2019-05-22T23:49:39.828Z,90.40
2019-05-22T23:52:10.392Z,90.50
2019-05-22T23:54:41.854Z,90.60
2019-05-22T23:57:11.101Z,90.30
2019-05-22T23:59:41.956Z,90.00
